Time;durP1;ratioP1;P1;durP2;ratioP2;P2;SDS_P1;SDS_P2;PMS_P1;PMS_P2;Temp;Humidity;BMP_temperature;BMP_pressure;BME280_temperature;BME280_humidity;BME280_pressure;Samples;Min_cycle;Max_cycle;Signal;HPM_P1;HPM_P2
2022/09/24 00:01:26;;;;;;;90.13;37.30;;;;;;;24.45;32.58;101543.66;4197191;28;20049;-63
2022/09/24 00:03:35;;;;;;;94.90;32.47;;;;;;;24.42;31.71;101546.19;4197732;28;20036;-64
2022/09/24 00:05:38;;;;;;;74.93;31.40;;;;;;;24.42;31.95;101543.41;4197415;28;20476;-63
2022/09/24 00:07:40;;;;;;;85.40;32.45;;;;;;;24.43;31.98;101557.09;4197635;28;20052;-63
2022/09/24 00:09:41;;;;;;;67.28;28.08;;;;;;;24.35;32.16;101543.69;4195937;28;20090;-64
2022/09/24 00:11:44;;;;;;;66.63;27.27;;;;;;;24.53;32.36;101585.00;4190473;28;20046;-63
2022/09/24 00:13:45;;;;;;;70.40;27.98;;;;;;;24.52;32.06;101576.91;4197369;28;20546;-64
2022/09/24 00:15:49;;;;;;;58.78;25.13;;;;;;;24.52;32.15;101571.31;4197493;28;20044;-64
2022/09/24 00:17:51;;;;;;;52.20;24.60;;;;;;;23.99;32.42;101495.53;4197612;28;20429;-65
2022/09/24 00:19:52;;;;;;;51.67;22.05;;;;;;;24.52;31.69;101580.53;4197030;28;20468;-64
2022/09/24 00:21:53;;;;;;;50.95;21.10;;;;;;;24.51;31.76;101575.22;4197346;28;20101;-65
2022/09/24 00:24:00;;;;;;;47.95;19.25;;;;;;;24.48;31.36;101584.22;4196856;28;20044;-65
2022/09/24 00:28:21;;;;;;;40.30;16.83;;;;;;;24.50;31.44;101593.13;4181033;28;20435;-65
2022/09/24 00:30:28;;;;;;;41.63;16.48;;;;;;;24.45;31.29;101585.63;4180856;28;20103;-64
2022/09/24 00:32:29;;;;;;;40.28;17.40;;;;;;;24.48;32.00;101593.44;4180395;28;20045;-64
2022/09/24 00:34:30;;;;;;;36.90;16.15;;;;;;;24.47;31.71;101597.38;4180991;28;20183;-63
2022/09/24 00:36:32;;;;;;;30.15;12.65;;;;;;;24.38;31.35;101598.28;4181237;28;20427;-65
2022/09/24 00:38:34;;;;;;;32.72;13.35;;;;;;;24.49;31.65;101616.66;4180837;28;20118;-64
2022/09/24 00:40:38;;;;;;;27.00;12.13;;;;;;;24.48;31.38;101621.41;4181104;28;20041;-63
2022/09/24 00:42:39;;;;;;;30.70;12.82;;;;;;;24.46;31.83;101620.84;4180631;28;20122;-64
2022/09/24 00:44:40;;;;;;;24.17;11.63;;;;;;;24.47;31.23;101635.72;4180914;28;20033;-64
2022/09/24 00:46:43;;;;;;;26.13;11.48;;;;;;;24.42;31.69;101627.31;4183658;28;20045;-64
2022/09/24 00:48:46;;;;;;;29.27;11.52;;;;;;;24.46;31.83;101643.22;4180335;28;20045;-64
2022/09/24 00:50:51;;;;;;;23.52;9.80;;;;;;;24.46;31.30;101646.03;4180877;28;20045;-64
2022/09/24 00:52:57;;;;;;;21.35;9.40;;;;;;;24.43;31.20;101651.41;4180204;28;20098;-65
2022/09/24 00:55:01;;;;;;;21.55;10.05;;;;;;;24.46;31.53;101653.59;4180581;28;20045;-64
2022/09/24 00:57:03;;;;;;;19.35;8.70;;;;;;;24.46;31.42;101651.63;4180387;28;20098;-65
2022/09/24 00:59:10;;;;;;;14.52;7.55;;;;;;;24.14;31.25;101604.50;4180510;28;20041;-65
2022/09/24 01:01:11;;;;;;;15.02;7.97;;;;;;;24.43;31.09;101659.78;4180399;28;20037;-65
2022/09/24 01:03:20;;;;;;;17.23;7.20;;;;;;;24.44;30.54;101659.50;4180424;28;20040;-65
2022/09/24 01:05:24;;;;;;;14.07;6.15;;;;;;;24.44;30.48;101665.09;4179465;28;20564;-65
2022/09/24 01:07:25;;;;;;;14.73;6.10;;;;;;;24.36;30.34;101662.84;4182642;28;20485;-65
2022/09/24 01:09:32;;;;;;;14.77;6.70;;;;;;;24.43;30.91;101668.19;4197284;28;20332;-65
2022/09/24 01:11:39;;;;;;;16.75;7.32;;;;;;;24.41;31.43;101668.44;4196943;28;20045;-64
2022/09/24 01:13:54;;;;;;;14.90;6.40;;;;;;;24.40;30.85;101675.16;4196442;28;20032;-65
2022/09/24 01:16:11;;;;;;;11.48;5.10;;;;;;;24.40;30.97;101677.13;4197208;28;20102;-65
2022/09/24 01:18:27;;;;;;;13.38;5.60;;;;;;;24.41;30.61;101676.00;4197012;28;20040;-65
2022/09/24 01:20:57;;;;;;;10.82;5.28;;;;;;;24.39;30.67;101667.06;4197266;28;20534;-65
2022/09/24 01:23:25;;;;;;;9.32;4.95;;;;;;;24.39;30.95;101679.09;4197122;28;20025;-65
2022/09/24 01:25:44;;;;;;;10.82;5.22;;;;;;;24.40;31.05;101679.94;4188475;28;20098;-65
2022/09/24 01:28:03;;;;;;;11.50;4.43;;;;;;;24.42;30.77;101694.44;4197127;28;20094;-65
2022/09/24 01:30:07;;;;;;;6.32;3.53;;;;;;;24.42;30.58;101684.13;4197145;28;20094;-66
2022/09/24 01:32:24;;;;;;;11.50;4.80;;;;;;;24.30;31.30;101673.22;4196474;28;20090;-66
2022/09/24 01:34:31;;;;;;;8.98;4.63;;;;;;;24.37;30.75;101681.31;4197603;28;20114;-66
2022/09/24 01:36:35;;;;;;;6.80;3.95;;;;;;;24.39;30.89;101687.50;4199992;28;20036;-65
2022/09/24 01:38:44;;;;;;;7.23;3.63;;;;;;;24.38;30.64;101683.03;4199855;28;20082;-64
2022/09/24 01:40:51;;;;;;;8.85;4.20;;;;;;;24.26;30.51;101665.69;4200207;28;20874;-65
2022/09/24 01:42:57;;;;;;;7.05;3.67;;;;;;;24.26;30.91;101674.09;4199769;28;20094;-65
2022/09/24 01:45:03;;;;;;;5.60;3.28;;;;;;;24.28;30.73;101664.31;4199854;28;20040;-65
2022/09/24 01:47:07;;;;;;;7.95;3.72;;;;;;;24.37;30.49;101680.50;4199743;28;20040;-65
2022/09/24 01:49:08;;;;;;;5.38;2.65;;;;;;;24.37;30.54;101675.72;4199767;28;20037;-66
2022/09/24 01:51:19;;;;;;;6.55;3.13;;;;;;;24.35;30.76;101680.75;4199652;28;20106;-65
2022/09/24 01:53:28;;;;;;;6.57;2.58;;;;;;;24.33;30.74;101675.47;4199541;28;20438;-65
2022/09/24 01:55:37;;;;;;;6.22;3.08;;;;;;;24.36;30.80;101685.22;4199961;28;20070;-65
2022/09/24 01:57:46;;;;;;;6.43;2.72;;;;;;;24.37;30.56;101686.09;4199844;28;20434;-65
2022/09/24 02:00:02;;;;;;;5.00;2.45;;;;;;;24.35;30.22;101687.19;4199421;28;20101;-65
2022/09/24 02:02:06;;;;;;;;;;;;;;;24.34;30.63;101691.13;4199612;28;20041;-65
2022/09/24 02:04:16;;;;;;;5.10;2.15;;;;;;;24.35;29.75;101689.97;4200025;28;19942;-64
2022/09/24 02:06:42;;;;;;;4.35;2.50;;;;;;;24.37;30.42;101708.47;4199980;28;20044;-65
2022/09/24 02:08:48;;;;;;;4.47;2.10;;;;;;;24.38;29.92;101715.75;4196401;28;20106;-64
2022/09/24 02:11:12;;;;;;;4.40;2.10;;;;;;;24.31;29.71;101722.44;4199290;28;20323;-64
2022/09/24 02:13:16;;;;;;;4.03;2.03;;;;;;;24.34;30.04;101727.47;4199193;28;20036;-64
2022/09/24 02:15:29;;;;;;;3.75;1.90;;;;;;;24.32;29.87;101723.28;4199624;28;20177;-65
2022/09/24 02:17:34;;;;;;;3.97;1.90;;;;;;;24.31;30.07;101728.03;4199189;28;20036;-64
2022/09/24 02:19:37;;;;;;;;;;;;;;;24.28;29.53;101731.44;4199898;28;20036;-64
2022/09/24 02:21:42;;;;;;;2.90;1.40;;;;;;;24.35;29.15;101740.34;4199316;28;19916;-64
2022/09/24 02:23:50;;;;;;;2.83;1.50;;;;;;;24.33;29.48;101742.59;4199500;28;20086;-65
2022/09/24 02:25:58;;;;;;;3.78;1.13;;;;;;;24.32;28.94;101751.25;4199241;28;20369;-65
2022/09/24 02:28:01;;;;;;;2.45;1.40;;;;;;;24.31;29.14;101744.81;4198944;28;20040;-65
2022/09/24 02:30:06;;;;;;;1.90;1.25;;;;;;;24.27;29.23;101752.09;4199542;28;20041;-64
2022/09/24 02:32:11;;;;;;;1.83;1.20;;;;;;;24.28;29.00;101753.81;4198864;28;20052;-64
2022/09/24 02:34:22;;;;;;;2.60;1.35;;;;;;;24.27;28.97;101754.06;4199187;28;20094;-64
2022/09/24 02:36:30;;;;;;;3.80;1.27;;;;;;;24.17;29.34;101732.56;4199569;28;20078;-64
2022/09/24 02:38:32;;;;;;;1.73;1.27;;;;;;;24.24;29.75;101741.50;4198658;28;20048;-67
2022/09/24 02:40:33;;;;;;;3.03;1.30;;;;;;;24.25;29.08;101740.38;4199174;28;20537;-64
2022/09/24 02:42:36;;;;;;;1.48;1.08;;;;;;;24.12;28.93;101721.41;4199026;28;20468;-65
2022/09/24 02:44:37;;;;;;;3.50;1.10;;;;;;;24.24;28.88;101749.91;4199235;28;20098;-65
2022/09/24 02:46:40;;;;;;;2.72;1.30;;;;;;;24.23;29.15;101748.19;4198464;28;20094;-65
2022/09/24 02:48:41;;;;;;;3.28;1.42;;;;;;;24.23;29.38;101752.94;4199428;28;20082;-65
2022/09/24 02:50:43;;;;;;;3.53;1.30;;;;;;;24.21;29.27;101753.25;4199316;28;20082;-64
2022/09/24 02:52:47;;;;;;;2.88;1.00;;;;;;;24.21;29.30;101758.84;4198782;28;20083;-64
2022/09/24 02:54:51;;;;;;;1.37;1.00;;;;;;;24.20;29.36;101757.19;4199050;28;20434;-64
2022/09/24 02:56:53;;;;;;;1.55;1.08;;;;;;;24.21;28.84;101761.63;4198705;28;20044;-65
2022/09/24 02:58:54;;;;;;;1.85;0.82;;;;;;;23.92;29.26;101715.88;4199000;28;20040;-64
2022/09/24 03:00:59;;;;;;;1.38;0.90;;;;;;;24.22;29.58;101756.88;4198575;28;20533;-65
2022/09/24 03:03:08;;;;;;;1.23;0.80;;;;;;;24.17;28.99;101745.72;4198283;28;20150;-65
2022/09/24 03:05:16;;;;;;;1.00;0.85;;;;;;;24.19;29.32;101747.13;4199054;28;20082;-65
2022/09/24 03:07:20;;;;;;;1.42;0.77;;;;;;;24.18;28.78;101745.41;4197944;28;20098;-65
2022/09/24 03:09:22;;;;;;;3.00;1.10;;;;;;;24.18;28.88;101761.38;4197743;28;20057;-65
2022/09/24 03:11:23;;;;;;;1.48;0.80;;;;;;;23.89;28.84;101708.88;4198502;28;20468;-65
2022/09/24 03:13:25;;;;;;;2.88;1.20;;;;;;;24.12;29.15;101749.34;4198455;28;20041;-65
2022/09/24 03:15:26;;;;;;;0.70;0.70;;;;;;;24.16;29.14;101753.28;4198553;28;20040;-65
2022/09/24 03:17:30;;;;;;;2.05;0.60;;;;;;;24.15;28.85;101757.19;4198300;28;20037;-65
2022/09/24 03:19:31;;;;;;;3.33;0.88;;;;;;;24.17;29.10;101766.13;4197312;28;20086;-65
2022/09/24 03:21:33;;;;;;;1.35;0.68;;;;;;;24.13;29.13;101759.41;4198086;28;20431;-65
2022/09/24 03:23:49;;;;;;;1.50;0.70;;;;;;;21.86;29.15;101391.56;4198613;28;20029;-65
2022/09/24 03:25:55;;;;;;;0.93;0.68;;;;;;;24.15;29.29;101776.75;4198156;28;20036;-65
2022/09/24 03:27:56;;;;;;;1.23;0.68;;;;;;;24.12;29.31;101776.50;4198031;28;20036;-65
2022/09/24 03:32:17;;;;;;;1.05;0.70;;;;;;;24.10;28.64;101787.97;4198555;28;20173;-65
2022/09/24 03:34:21;;;;;;;1.02;0.63;;;;;;;24.12;28.99;101788.50;4197907;28;20075;-65
2022/09/24 03:36:25;;;;;;;2.50;1.25;;;;;;;24.10;29.21;101793.56;4198421;28;20044;-65
2022/09/24 03:38:30;;;;;;;1.27;0.70;;;;;;;24.10;28.86;101807.53;4197789;28;20044;-65
2022/09/24 03:40:31;;;;;;;0.60;0.43;;;;;;;24.00;29.64;101782.38;4197113;28;20381;-65
2022/09/24 03:42:38;;;;;;;0.80;0.60;;;;;;;23.62;28.98;101720.34;4197864;28;20048;-64
2022/09/24 03:44:39;;;;;;;1.40;0.80;;;;;;;24.08;28.90;101801.38;4197845;28;20154;-64
2022/09/24 03:46:40;;;;;;;2.28;0.80;;;;;;;24.09;29.17;101803.88;4198129;28;20105;-64
2022/09/24 03:48:42;;;;;;;1.42;0.60;;;;;;;24.11;29.52;101806.41;4197712;28;20037;-64
2022/09/24 03:50:44;;;;;;;1.08;0.60;;;;;;;24.10;29.38;101804.75;4197574;28;20109;-64
2022/09/24 03:52:46;;;;;;;1.75;0.95;;;;;;;24.08;29.24;101796.63;4197609;28;20044;-64
2022/09/24 03:54:47;;;;;;;1.98;0.40;;;;;;;24.06;29.13;101792.44;4198230;28;20036;-65
2022/09/24 03:56:48;;;;;;;0.77;0.60;;;;;;;24.09;29.21;101797.44;4197612;28;20040;-64
2022/09/24 03:58:50;;;;;;;0.70;0.70;;;;;;;23.49;28.88;101715.31;4197707;28;20483;-64
2022/09/24 04:00:52;;;;;;;1.75;0.73;;;;;;;24.06;29.05;101798.03;4197621;28;20041;-64
2022/09/24 04:02:54;;;;;;;1.52;0.80;;;;;;;24.05;29.01;101801.94;4197200;28;20113;-64
2022/09/24 04:04:55;;;;;;;1.75;0.80;;;;;;;24.04;28.91;101795.50;4197968;28;20040;-64
2022/09/24 04:06:58;;;;;;;1.63;1.00;;;;;;;24.01;29.07;101795.25;4197804;28;20048;-64
2022/09/24 04:09:02;;;;;;;1.50;0.52;;;;;;;24.02;28.89;101808.09;4197324;28;20495;-64
2022/09/24 04:11:03;;;;;;;0.93;0.63;;;;;;;23.79;29.08;101751.66;4197528;28;20472;-64
2022/09/24 04:13:05;;;;;;;1.13;0.50;;;;;;;23.96;28.80;101787.72;4197463;28;20105;-63
2022/09/24 04:15:06;;;;;;;1.30;0.85;;;;;;;23.99;29.11;101792.72;4197727;28;20423;-64
2022/09/24 04:17:09;;;;;;;1.35;0.50;;;;;;;24.03;28.99;101793.00;4197306;28;20040;-66
2022/09/24 04:19:11;;;;;;;1.40;0.47;;;;;;;23.99;29.11;101791.88;4197197;28;20036;-63
2022/09/24 04:21:12;;;;;;;0.95;0.50;;;;;;;24.01;29.13;101795.25;4197801;28;20024;-65
2022/09/24 04:23:14;;;;;;;1.70;0.60;;;;;;;23.99;29.21;101791.88;4197048;28;20090;-65
2022/09/24 04:25:18;;;;;;;0.63;0.60;;;;;;;24.00;28.75;101776.78;4197718;28;20024;-64
2022/09/24 04:27:20;;;;;;;1.63;0.70;;;;;;;24.00;28.89;101766.44;4197224;28;20545;-64
2022/09/24 04:29:24;;;;;;;0.65;0.43;;;;;;;23.90;29.10;101746.03;4197119;28;20094;-64
2022/09/24 04:31:26;;;;;;;1.08;0.47;;;;;;;23.96;29.06;101745.78;4197003;28;20082;-64
2022/09/24 04:33:27;;;;;;;0.80;0.43;;;;;;;23.88;29.34;101728.72;4197490;28;20102;-64
2022/09/24 04:35:30;;;;;;;1.58;0.60;;;;;;;23.96;28.92;101739.31;4197585;28;20036;-64
2022/09/24 04:37:34;;;;;;;1.38;0.60;;;;;;;23.99;28.82;101735.97;4197620;28;20045;-64
2022/09/24 04:39:36;;;;;;;0.60;0.40;;;;;;;23.98;28.94;101735.13;4196998;28;20052;-64
2022/09/24 04:41:40;;;;;;;1.20;0.60;;;;;;;23.81;29.17;101707.47;4197272;28;20553;-64
2022/09/24 04:43:42;;;;;;;0.73;0.50;;;;;;;23.98;29.18;101753.88;4197336;28;20036;-64
2022/09/24 04:45:55;;;;;;;1.85;0.60;;;;;;;23.83;29.34;101733.22;4197484;28;20326;-64
2022/09/24 04:47:56;;;;;;;0.85;0.50;;;;;;;23.72;29.10;101716.72;4197641;28;20070;-64
2022/09/24 04:50:01;;;;;;;0.57;0.47;;;;;;;23.95;29.23;101748.84;4197181;28;20557;-64
2022/09/24 04:52:03;;;;;;;;;;;;;;;23.91;29.37;101754.13;4197434;28;20094;-64
2022/09/24 04:54:04;;;;;;;1.00;0.40;;;;;;;23.95;29.31;101744.06;4197384;28;20375;-63
2022/09/24 04:56:10;;;;;;;0.98;0.52;;;;;;;24.00;29.06;101762.78;4197045;28;20102;-64
2022/09/24 04:58:12;;;;;;;0.47;0.40;;;;;;;23.82;29.22;101728.75;4197331;28;20094;-64
2022/09/24 05:00:18;;;;;;;1.40;0.60;;;;;;;23.96;29.15;101770.06;4197274;28;20435;-64
2022/09/24 05:02:22;;;;;;;1.40;0.52;;;;;;;23.93;29.02;101765.06;4196597;28;20498;-64
2022/09/24 05:04:27;;;;;;;2.30;0.45;;;;;;;23.93;29.07;101765.06;4194523;28;20098;-65
2022/09/24 05:06:31;;;;;;;0.90;0.60;;;;;;;23.81;29.14;101745.78;4196960;28;20074;-64
2022/09/24 05:08:33;;;;;;;0.57;0.50;;;;;;;23.91;29.33;101762.53;4192891;28;20090;-64
2022/09/24 05:10:34;;;;;;;0.73;0.40;;;;;;;23.86;29.48;101756.94;4182595;28;20041;-64
2022/09/24 05:12:35;;;;;;;0.77;0.50;;;;;;;23.90;29.47;101765.63;4183794;28;20033;-64
2022/09/24 05:14:37;;;;;;;0.80;0.60;;;;;;;23.23;29.21;101672.56;4184038;28;20095;-65
2022/09/24 05:16:38;;;;;;;1.10;0.50;;;;;;;23.88;29.25;101773.47;4184072;28;20122;-64
2022/09/24 05:18:39;;;;;;;0.65;0.52;;;;;;;23.85;28.89;101774.84;4183727;28;20041;-65
2022/09/24 05:20:43;;;;;;;0.77;0.55;;;;;;;23.89;29.32;101780.72;4183723;28;20049;-64
2022/09/24 05:22:48;;;;;;;0.88;0.47;;;;;;;23.88;29.52;101779.03;4183227;28;20033;-64
2022/09/24 05:24:52;;;;;;;3.70;0.60;;;;;;;23.87;29.42;101783.81;4183790;28;20476;-64
2022/09/24 05:27:09;;;;;;;2.20;1.15;;;;;;;23.87;29.09;101785.72;4183408;28;20332;-64
2022/09/24 05:29:10;;;;;;;0.68;0.50;;;;;;;23.88;28.91;101793.03;4183492;28;20044;-64
2022/09/24 05:31:11;;;;;;;1.95;0.65;;;;;;;23.88;29.04;101801.41;4183752;28;20049;-64
2022/09/24 05:33:13;;;;;;;0.70;0.45;;;;;;;23.85;28.83;101797.19;4183418;28;20037;-64
2022/09/24 05:35:14;;;;;;;0.63;0.40;;;;;;;23.86;29.23;101792.44;4183662;28;20162;-64
2022/09/24 05:37:18;;;;;;;2.78;1.13;;;;;;;23.76;29.12;101788.53;4188841;28;20421;-64
2022/09/24 05:39:19;;;;;;;0.88;0.50;;;;;;;23.84;28.88;101801.13;4199707;28;20032;-65
2022/09/24 05:41:21;;;;;;;2.75;0.98;;;;;;;23.81;29.11;101791.31;4202031;28;20134;-65
2022/09/24 05:43:22;;;;;;;1.45;0.50;;;;;;;23.84;29.76;101801.13;4204816;28;20044;-65
2022/09/24 05:45:23;;;;;;;4.13;0.50;;;;;;;23.75;28.57;101761.72;4199600;28;20037;-65
2022/09/24 05:47:25;;;;;;;194.48;127.40;;;;;;;23.81;29.63;101785.75;4199635;28;20040;-65
2022/09/24 05:49:26;;;;;;;181.70;121.63;;;;;;;23.75;29.17;101770.09;4208546;28;20047;-65
2022/09/24 05:51:27;;;;;;;66.63;41.97;;;;;;;23.71;29.54;101780.16;4204573;28;20085;-64
2022/09/24 05:53:32;;;;;;;32.33;22.63;;;;;;;23.59;29.10;101760.00;4189930;28;20037;-64
2022/09/24 05:55:34;;;;;;;29.52;20.52;;;;;;;23.64;29.59;101776.81;4197995;28;20037;-64
2022/09/24 05:57:36;;;;;;;20.70;14.55;;;;;;;23.55;29.89;101753.31;4188075;28;20356;-64
2022/09/24 05:59:37;;;;;;;16.58;10.98;;;;;;;23.56;29.22;101760.59;4197907;28;20037;-65
2022/09/24 06:01:39;;;;;;;14.45;9.68;;;;;;;23.39;29.23;101737.66;4199522;28;20098;-64
2022/09/24 06:03:40;;;;;;;13.13;10.40;;;;;;;23.49;29.54;101765.59;4184441;28;20041;-64
2022/09/24 06:05:49;;;;;;;10.43;6.57;;;;;;;23.48;28.97;101775.09;4182949;28;20048;-64
2022/09/24 06:07:50;;;;;;;11.32;7.72;;;;;;;23.45;29.27;101764.47;4193242;28;20090;-67
2022/09/24 06:09:51;;;;;;;10.82;6.30;;;;;;;23.37;29.11;101763.09;4199338;28;20090;-64
2022/09/24 06:11:53;;;;;;;7.75;5.90;;;;;;;23.32;29.46;101755.53;4199404;28;20036;-65
2022/09/24 06:13:54;;;;;;;9.93;5.32;;;;;;;23.45;29.58;101770.06;4198483;28;20044;-65
2022/09/24 06:16:07;;;;;;;7.03;4.80;;;;;;;23.41;29.37;101780.94;4183366;28;20552;-64
2022/09/24 06:18:12;;;;;;;4.75;3.50;;;;;;;23.41;29.05;101774.53;4183282;28;20423;-66
2022/09/24 06:20:14;;;;;;;5.80;4.00;;;;;;;23.33;29.49;101756.38;4182526;28;20032;-65
2022/09/24 06:22:15;;;;;;;5.40;3.45;;;;;;;23.34;29.69;101780.38;4181109;28;20431;-65
2022/09/24 06:24:19;;;;;;;5.25;2.83;;;;;;;23.33;29.46;101790.72;4184341;28;20041;-65
2022/09/24 06:26:25;;;;;;;3.92;2.55;;;;;;;23.29;29.54;101789.59;4199450;28;20097;-64
2022/09/24 06:28:29;;;;;;;2.47;1.88;;;;;;;23.32;29.11;101796.56;4199045;28;20040;-65
2022/09/24 06:30:37;;;;;;;2.03;1.58;;;;;;;23.36;29.07;101802.44;4198840;28;20041;-65
2022/09/24 06:32:38;;;;;;;2.10;1.30;;;;;;;23.40;28.88;101800.78;4198723;28;20078;-65
2022/09/24 06:34:40;;;;;;;2.65;1.45;;;;;;;23.38;29.31;101797.44;4199012;28;20125;-65
2022/09/24 06:36:43;;;;;;;2.63;1.13;;;;;;;23.42;28.59;101787.38;4198982;28;20098;-64
2022/09/24 06:38:49;;;;;;;1.77;0.93;;;;;;;23.24;28.92;101764.47;4207901;28;20109;-64
2022/09/24 06:40:51;;;;;;;3.13;1.02;;;;;;;23.40;28.73;101778.44;4210857;28;20044;-64
2022/09/24 06:42:52;;;;;;;1.50;0.90;;;;;;;23.38;28.71;101775.09;4182103;28;20041;-65
2022/09/24 06:44:56;;;;;;;2.65;1.60;;;;;;;23.40;29.02;101772.84;4182528;28;20068;-65
2022/09/24 06:46:58;;;;;;;1.02;0.70;;;;;;;23.40;28.65;101764.47;4182299;28;20496;-65
2022/09/24 06:48:59;;;;;;;1.45;0.80;;;;;;;23.42;28.76;101765.88;4182068;28;20033;-65
2022/09/24 06:51:03;;;;;;;2.05;0.80;;;;;;;23.36;28.74;101754.97;4185920;28;20089;-66
2022/09/24 06:53:05;;;;;;;1.52;0.70;;;;;;;23.43;29.24;101761.13;4197637;28;20480;-65
2022/09/24 06:55:07;;;;;;;1.50;0.98;;;;;;;23.33;28.62;101750.78;4199145;28;20086;-65
2022/09/24 06:57:08;;;;;;;2.47;0.82;;;;;;;23.44;28.85;101782.34;4198812;28;20094;-65
2022/09/24 06:59:10;;;;;;;1.55;0.60;;;;;;;23.45;28.45;101770.06;4185869;28;20090;-65
2022/09/24 07:01:11;;;;;;;1.63;0.80;;;;;;;23.45;28.70;101776.47;4182028;28;20037;-65
2022/09/24 07:03:15;;;;;;;2.22;1.08;;;;;;;23.44;28.92;101769.22;4182163;28;20041;-65
2022/09/24 07:05:16;;;;;;;1.17;0.70;;;;;;;23.46;28.67;101782.91;4212117;28;20040;-65
2022/09/24 07:07:31;;;;;;;1.20;0.80;;;;;;;23.45;28.51;101787.66;4215591;28;20028;-65
2022/09/24 07:09:32;;;;;;;1.10;0.60;;;;;;;23.35;28.95;101770.88;4215004;28;20445;-66
2022/09/24 07:11:35;;;;;;;0.88;0.60;;;;;;;23.45;28.67;101786.81;4190220;28;20029;-65
2022/09/24 07:13:36;;;;;;;1.80;0.80;;;;;;;23.45;28.50;101796.03;4201211;28;20093;-65
2022/09/24 07:15:38;;;;;;;1.02;0.68;;;;;;;23.20;28.48;101756.91;4190039;28;20519;-65
2022/09/24 07:17:39;;;;;;;2.45;0.70;;;;;;;23.16;28.74;101745.47;4209257;28;20091;-65
2022/09/24 07:19:41;;;;;;;0.90;0.80;;;;;;;23.38;28.82;101781.53;4199635;28;20052;-65
2022/09/24 07:21:42;;;;;;;1.13;0.70;;;;;;;23.33;28.84;101790.72;4196019;28;20129;-65
2022/09/24 07:23:47;;;;;;;3.15;0.77;;;;;;;23.36;28.67;101782.91;4208619;28;20038;-65
2022/09/24 07:25:50;;;;;;;1.42;0.80;;;;;;;23.42;28.52;101801.34;4198214;28;20094;-65
2022/09/24 07:27:51;;;;;;;0.77;0.55;;;;;;;23.37;28.47;101795.75;4204870;28;20121;-66
2022/09/24 07:29:53;;;;;;;0.82;0.63;;;;;;;23.39;28.56;101794.34;4214731;28;20044;-65
2022/09/24 07:31:55;;;;;;;1.50;0.80;;;;;;;23.38;28.83;101797.44;4208745;28;20095;-65
2022/09/24 07:33:58;;;;;;;1.00;0.80;;;;;;;23.40;28.58;101798.81;4181616;28;20060;-65
2022/09/24 07:36:05;;;;;;;1.98;0.80;;;;;;;23.37;28.71;101798.53;4180985;28;20045;-65
2022/09/24 07:38:29;;;;;;;0.90;0.60;;;;;;;23.41;28.84;101805.25;4181602;28;20052;-65
2022/09/24 07:40:31;;;;;;;1.10;0.60;;;;;;;23.41;28.56;101803.28;4202705;28;20081;-65
2022/09/24 07:42:33;;;;;;;1.55;0.80;;;;;;;23.41;29.23;101808.03;4214289;28;20036;-65
2022/09/24 07:44:35;;;;;;;2.15;0.80;;;;;;;23.42;28.55;101809.75;4214691;28;20097;-65
2022/09/24 07:46:39;;;;;;;1.15;0.60;;;;;;;23.42;29.00;101798.56;4214642;28;20093;-65
2022/09/24 07:48:40;;;;;;;1.38;0.60;;;;;;;23.42;29.19;101804.16;4212930;28;20040;-65
2022/09/24 07:50:44;;;;;;;1.83;0.80;;;;;;;23.40;28.91;101796.03;4183880;28;20083;-65
2022/09/24 07:52:50;;;;;;;1.13;0.60;;;;;;;23.36;28.97;101788.47;4214290;28;20048;-65
2022/09/24 07:54:53;;;;;;;1.38;0.70;;;;;;;23.32;28.79;101783.47;4214451;28;20044;-65
2022/09/24 07:56:54;;;;;;;1.67;0.55;;;;;;;23.11;28.89;101753.81;4214368;28;20040;-65
2022/09/24 07:58:55;;;;;;;1.52;0.60;;;;;;;23.27;29.23;101779.81;4214370;28;20105;-65
2022/09/24 08:01:02;;;;;;;0.90;0.60;;;;;;;23.11;29.26;101753.81;4214402;28;20101;-65
2022/09/24 08:03:04;;;;;;;1.02;0.47;;;;;;;23.21;29.51;101784.56;4201559;28;20083;-65
2022/09/24 08:05:06;;;;;;;1.55;0.60;;;;;;;23.14;28.98;101770.03;4197618;28;20037;-65
2022/09/24 08:07:07;;;;;;;1.90;0.80;;;;;;;23.25;29.13;101794.06;4185103;28;20338;-65
2022/09/24 08:09:08;;;;;;;1.50;0.70;;;;;;;23.13;29.45;101768.34;4193368;28;20040;-65
2022/09/24 08:11:16;;;;;;;1.60;0.60;;;;;;;23.13;29.17;101775.88;4197756;28;20040;-65
2022/09/24 08:13:17;;;;;;;1.75;0.57;;;;;;;23.28;28.90;101799.09;4197572;28;20048;-65
2022/09/24 08:15:21;;;;;;;1.30;0.50;;;;;;;23.29;28.98;101799.94;4198100;28;20029;-65
2022/09/24 08:17:22;;;;;;;2.53;0.57;;;;;;;23.27;29.18;101791.81;4197544;28;20040;-65
2022/09/24 08:19:27;;;;;;;0.60;0.60;;;;;;;23.26;29.11;101801.31;4197473;28;20117;-65
2022/09/24 08:21:32;;;;;;;0.98;0.52;;;;;;;23.26;29.15;101794.88;4197233;28;20048;-66
2022/09/24 08:23:38;;;;;;;0.77;0.47;;;;;;;23.19;29.28;101786.78;4189391;28;20079;-65
2022/09/24 08:25:40;;;;;;;1.10;0.50;;;;;;;23.26;29.26;101795.72;4179988;28;20102;-65
2022/09/24 08:27:41;;;;;;;0.88;0.60;;;;;;;23.22;28.88;101788.19;4180862;28;20041;-65
2022/09/24 08:29:46;;;;;;;2.03;0.80;;;;;;;23.24;29.20;101789.59;4180719;28;20041;-65
2022/09/24 08:31:48;;;;;;;1.20;0.68;;;;;;;23.24;29.24;101778.44;4180388;28;20033;-66
2022/09/24 08:33:49;;;;;;;1.13;0.60;;;;;;;23.21;29.37;101770.59;4180690;28;20036;-65
2022/09/24 08:35:54;;;;;;;2.65;0.73;;;;;;;23.24;29.05;101781.22;4181104;28;20530;-65
2022/09/24 08:37:55;;;;;;;1.50;1.10;;;;;;;23.24;29.38;101764.47;4180844;28;20024;-65
2022/09/24 08:39:56;;;;;;;3.15;1.75;;;;;;;23.14;29.31;101752.41;4181064;28;20450;-65
2022/09/24 08:42:14;;;;;;;3.35;2.33;;;;;;;23.22;29.22;101766.69;4180621;28;20041;-65
2022/09/24 08:47:21;;;;;;;2.05;1.80;;;;;;;23.21;29.03;101741.84;4182100;28;20099;-65
2022/09/24 08:49:42;;;;;;;3.42;1.92;;;;;;;22.71;29.43;101660.50;4180736;28;20431;-65
2022/09/24 08:51:55;;;;;;;3.55;2.00;;;;;;;23.25;29.38;101748.53;4190150;28;20048;-65
2022/09/24 08:54:09;;;;;;;3.40;1.67;;;;;;;23.21;29.33;101742.66;4197295;28;20105;-65
2022/09/24 08:56:11;;;;;;;2.45;1.42;;;;;;;23.25;28.95;101748.53;4196426;28;20071;-65
2022/09/24 08:58:31;;;;;;;2.10;1.33;;;;;;;23.23;29.41;101746.03;4183652;28;20041;-65
2022/09/24 09:01:01;;;;;;;3.05;1.48;;;;;;;23.14;29.09;101730.94;4180997;28;20546;-65
2022/09/24 09:03:20;;;;;;;1.67;1.20;;;;;;;23.20;28.96;101741.00;4172601;28;20044;-65
2022/09/24 09:05:53;;;;;;;1.73;1.23;;;;;;;23.20;29.08;101745.75;4195087;28;20443;-64
2022/09/24 09:08:08;;;;;;;1.25;1.10;;;;;;;23.22;29.33;101749.09;4188927;28;20033;-65
2022/09/24 09:10:28;;;;;;;2.15;1.05;;;;;;;23.17;29.13;101744.34;4183299;28;20044;-65
2022/09/24 09:12:37;;;;;;;3.17;1.10;;;;;;;23.16;29.17;101745.47;4193699;28;20036;-65
2022/09/24 09:14:52;;;;;;;1.75;1.10;;;;;;;23.21;29.26;101753.84;4187965;28;20041;-66
2022/09/24 09:17:08;;;;;;;1.77;1.00;;;;;;;23.03;29.51;101724.50;4197219;28;20181;-64
2022/09/24 09:19:14;;;;;;;2.33;0.80;;;;;;;23.19;29.19;101738.50;4186164;28;20041;-63
2022/09/24 09:21:30;;;;;;;1.30;0.82;;;;;;;23.17;29.47;101735.97;4180491;28;20107;-63
2022/09/24 09:23:47;;;;;;;1.80;0.70;;;;;;;23.16;29.55;101728.72;4180574;28;20483;-66
2022/09/24 09:25:53;;;;;;;0.95;0.68;;;;;;;23.07;29.50;101708.03;4180394;28;20045;-63
2022/09/24 09:28:13;;;;;;;1.13;0.70;;;;;;;23.14;29.53;101717.00;4180374;28;20045;-64
2022/09/24 09:30:18;;;;;;;0.82;0.70;;;;;;;23.16;29.46;101717.53;4182341;28;20048;-64
2022/09/24 09:32:33;;;;;;;1.02;0.80;;;;;;;23.11;29.28;101702.75;4181729;28;20079;-64
2022/09/24 09:34:44;;;;;;;2.22;0.68;;;;;;;23.15;29.53;101713.06;4179322;28;20036;-64
2022/09/24 09:36:52;;;;;;;1.83;1.00;;;;;;;23.15;29.33;101710.28;4182479;28;20387;-64
2022/09/24 09:39:19;;;;;;;0.50;0.50;;;;;;;23.15;29.54;101706.66;4194408;28;20044;-64
2022/09/24 09:41:54;;;;;;;0.95;0.60;;;;;;;23.13;29.33;101706.91;4195804;28;20087;-64
2022/09/24 09:44:12;;;;;;;2.05;0.82;;;;;;;23.13;29.76;101701.31;4195632;28;20036;-64
2022/09/24 09:46:32;;;;;;;1.55;0.77;;;;;;;23.02;29.52;101685.69;4196053;28;20438;-64
2022/09/24 09:48:44;;;;;;;2.75;0.77;;;;;;;23.14;29.35;101703.03;4194612;28;20044;-64
2022/09/24 09:50:58;;;;;;;1.92;0.88;;;;;;;22.96;29.57;101672.84;4193296;28;20569;-64